Marion, OH

3:56 PM EST on December 25, 2014 (GMT -0500)
Neidhart Rd. South of Southern Estates | Change Station
CLOSE
Current Station
Personal Weather Station
Location: Marion, OH
Elevation: 968 ft
Nearby Weather Stations

Elev 968 ft 40.53 °N, 83.09 °W | Updated 6 seconds ago

Overcast
Overcast
38.5 °F
Feels Like 37 °F
N
3.1
Wind Variable Wind from NNW

Today
High -- | Low -- °F
--% Chance of Precip.
Yesterday
High -- | Low -- °F
Precip. -- in
7:54 AM 5:11 PM
Waxing Crescent, 19% visible
Pressure 30.10 in
Visibility 10.0 miles
Clouds Overcast 2500 ft
Windchill 37 °F
Dew Point 31 °F
Humidity 75%
Rainfall 0.04 in
Snow Depth Not available.
UV 0 out of 12
Pollen .10 out of 12
Air Quality Not available.
Flu Activity Not available.
METAR KOSU 251953Z 22011KT 10SM OVC025 04/M01 A3008 RMK AO2 SLP192 T00441011

More Conditions Fewer Conditions

Pressure 30.10 in
Visibility 10.0 miles
Clouds Overcast 2500 ft
Windchill 37 °F
Dew Point 31 °F
Humidity 75%
Rainfall 0.04 in
Snow Depth Not available.
UV 0 out of 12
Pollen .10 out of 12
Air Quality Not available.
Flu Activity Not available.
METAR KOSU 251953Z 22011KT 10SM OVC025 04/M01 A3008 RMK AO2 SLP192 T00441011

More Conditions Fewer Conditions

10-Day Weather Forecast

Almanac

Astronomy

Dec. 25, 2014 Rise Set
Actual Time
Civil Twilight
Nautical Twilight
Astronomical Twilight
Moon
Length of Visible Light
Length of Day
Tomorrow will be .
, % of the Moon is Illuminated

Today's Extremes

State Highs State Lows

Community

WunderPhotos

Upload Photos

1,780,392 photos uploaded!

WunderBlogs® & News

Nearby

Air Quality

  Air Quality AQ Index Pollutant
Not available.

Snow Depth

Station Depth Elevation

Earthquake Activity

City Distance Mag. Time & Date
Minimum magnitude displayed is 2.5.

Coastal Water Temperatures

Place Temperature

Nearby Weather Stations